Portada
METAR-TAF:

METAR-TAF

Aeropuertos :

Rabat, Marruecos

Aeropuerto de Rabat-Salé

latitud: 34-03N, longitud: 006-46W, altitud: 84 m

Observación

El informe se hizo hace 32 minutos, a las 06:30 UTC
Viento 3 kt del este-sureste
Temperatura 19°C
Humedad 88%
Presión 1015 hPa
Visibilidad: 5000 m

METAR: GMME 240630Z 12003KT 5000 NSC 19/17 Q1015 NOSIG

Hora: 07:02 (07:02 UTC)

Pronóstico

El informe se hizo hace 14 horas y 2 minutos, a las 17:00 UTC
Pronóstico válido del 23 a las 18 UTC al 24 a las 24 UTC
Viento 10 kt del este
Visibilidad: 6000 m
Temporalmente
del 24 a las 02 UTC al 24 a las 06 UTC
Viento 8 kt del sureste
Nubes dispersas a una altura de 1500 ft

TAF: GMME 231700Z 2318/2424 08010KT 6000 NSC TEMPO 2402/2406 14008KT SCT015

Observaciones y pronósticos meteorológicos de más de 4000 aeropuertos (mensajes METAR y TAF).

Los puntos amarillos y rojos representan las estaciones disponibles.

Ponga el ratón en el punto deseado para ver el nombre de la estación.

Haga clic para ver las observaciones y los pronósticos meteorológicos.

Para cambiar el mapa : haga clic en los botones verdes con una cruz de color negro para hacer un zoom, en el botón verde con un guión para alejar o en las flechas verdes para mapas adyacentes.


METAR-TAF: